createdAt,value
2022-12-13T00:01:17.656Z,-9.00
2022-12-13T00:03:45.201Z,-8.94
2022-12-13T00:06:13.011Z,-8.93
2022-12-13T00:08:39.865Z,-8.98
2022-12-13T00:11:09.009Z,-8.98
2022-12-13T00:13:35.465Z,-8.99
2022-12-13T00:16:06.170Z,-9.03
2022-12-13T00:18:33.751Z,-9.05
2022-12-13T00:21:04.208Z,-9.06
2022-12-13T00:23:30.810Z,-9.11
2022-12-13T00:26:10.235Z,-9.17
2022-12-13T00:28:37.634Z,-9.13
2022-12-13T00:31:20.062Z,-9.14
2022-12-13T00:33:51.109Z,-9.17
2022-12-13T00:36:18.694Z,-9.25
2022-12-13T00:38:45.677Z,-9.25
2022-12-13T00:41:16.434Z,-9.26
2022-12-13T00:43:43.498Z,-9.26
2022-12-13T00:46:18.991Z,-9.25
2022-12-13T00:48:50.996Z,-9.30
2022-12-13T00:51:18.958Z,-9.24
2022-12-13T00:53:45.662Z,-9.26
2022-12-13T00:56:14.472Z,-9.24
2022-12-13T00:58:43.367Z,-9.29
2022-12-13T01:01:15.803Z,-9.35
2022-12-13T01:03:43.483Z,-9.35
2022-12-13T01:06:19.044Z,-9.35
2022-12-13T01:08:49.549Z,-9.34
2022-12-13T01:11:18.198Z,-9.36
2022-12-13T01:13:45.932Z,-9.35
2022-12-13T01:16:13.573Z,-9.37
2022-12-13T01:18:41.307Z,-9.47
2022-12-13T01:21:12.029Z,-9.47
2022-12-13T01:23:38.968Z,-9.48
2022-12-13T01:26:07.511Z,-9.50
2022-12-13T01:28:34.184Z,-9.47
2022-12-13T01:31:05.820Z,-9.47
2022-12-13T01:33:33.403Z,-9.52
2022-12-13T01:36:06.890Z,-9.57
2022-12-13T01:38:37.794Z,-9.56
2022-12-13T01:41:16.771Z,-9.55
2022-12-13T01:43:49.129Z,-9.55
2022-12-13T01:46:18.175Z,-9.57
2022-12-13T01:48:50.934Z,-9.57
2022-12-13T01:51:21.482Z,-9.55
2022-12-13T01:53:50.227Z,-9.55
2022-12-13T01:56:31.687Z,-9.58
2022-12-13T01:59:00.379Z,-9.60
2022-12-13T02:01:28.716Z,-9.63
2022-12-13T02:03:55.648Z,-9.65
2022-12-13T02:06:39.884Z,-9.67
2022-12-13T02:09:08.255Z,-9.72
2022-12-13T02:11:37.672Z,-9.70
2022-12-13T02:14:05.550Z,-9.68
2022-12-13T02:16:50.614Z,-9.71
2022-12-13T02:19:49.756Z,-9.75
2022-12-13T02:22:34.688Z,-9.75
2022-12-13T02:25:16.924Z,-9.78
2022-12-13T02:28:31.872Z,-9.75
2022-12-13T02:31:32.431Z,-9.77
2022-12-13T02:34:09.939Z,-9.86
2022-12-13T02:37:18.071Z,-9.90
2022-12-13T02:39:56.746Z,-9.93
2022-12-13T02:42:33.319Z,-9.96
2022-12-13T02:45:17.168Z,-9.95
2022-12-13T02:47:49.393Z,-9.97
2022-12-13T02:50:16.363Z,-9.98
2022-12-13T02:52:46.627Z,-10.03
2022-12-13T02:55:15.570Z,-10.05
2022-12-13T02:57:43.512Z,-10.08
2022-12-13T03:00:15.798Z,-10.11
2022-12-13T03:02:48.456Z,-10.16
2022-12-13T03:05:44.815Z,-10.28
2022-12-13T03:08:29.637Z,-10.27
2022-12-13T03:11:13.118Z,-10.24
2022-12-13T03:13:56.081Z,-10.23
2022-12-13T03:16:43.872Z,-10.19
2022-12-13T03:19:12.804Z,-10.25
2022-12-13T03:21:45.710Z,-10.20
2022-12-13T03:24:17.153Z,-10.23
2022-12-13T03:26:43.983Z,-10.24
2022-12-13T03:29:10.965Z,-10.28
2022-12-13T03:31:37.650Z,-10.28
2022-12-13T03:34:04.396Z,-10.30
2022-12-13T03:36:31.244Z,-10.38
2022-12-13T03:39:08.912Z,-10.43
2022-12-13T03:41:39.155Z,-10.42
2022-12-13T03:44:07.962Z,-10.46
2022-12-13T03:46:36.195Z,-10.40
2022-12-13T03:49:02.929Z,-10.38
2022-12-13T03:51:29.566Z,-10.33
2022-12-13T03:53:56.264Z,-10.42
2022-12-13T03:56:23.084Z,-10.37
2022-12-13T03:58:50.202Z,-10.36
2022-12-13T04:01:19.159Z,-10.42
2022-12-13T04:03:46.779Z,-10.45
2022-12-13T04:06:22.439Z,-10.52
2022-12-13T04:08:52.258Z,-10.47
2022-12-13T04:11:42.705Z,-10.43
2022-12-13T04:14:11.522Z,-10.45
2022-12-13T04:16:38.269Z,-10.53
2022-12-13T04:19:05.004Z,-10.60
2022-12-13T04:21:31.721Z,-10.65
2022-12-13T04:24:00.930Z,-10.60
2022-12-13T04:26:28.561Z,-10.63
2022-12-13T04:28:55.286Z,-10.63
2022-12-13T04:31:22.227Z,-10.69
2022-12-13T04:33:49.004Z,-10.71
2022-12-13T04:36:30.936Z,-10.62
2022-12-13T04:39:02.420Z,-10.63
2022-12-13T04:41:34.526Z,-10.73
2022-12-13T04:44:02.129Z,-10.78
2022-12-13T04:46:31.797Z,-10.78
2022-12-13T04:48:58.624Z,-10.84
2022-12-13T04:51:25.688Z,-10.88
2022-12-13T04:53:52.656Z,-10.90
2022-12-13T04:56:19.992Z,-10.92
2022-12-13T04:58:46.949Z,-10.99
2022-12-13T05:01:13.766Z,-10.94
2022-12-13T05:03:40.689Z,-10.85
2022-12-13T05:06:26.737Z,-10.78
2022-12-13T05:08:55.078Z,-10.78
2022-12-13T05:11:28.075Z,-10.70
2022-12-13T05:14:02.811Z,-10.72
2022-12-13T05:16:29.603Z,-10.64
2022-12-13T05:18:56.391Z,-10.63
2022-12-13T05:21:23.027Z,-10.61
2022-12-13T05:23:49.797Z,-10.64
2022-12-13T05:26:17.350Z,-10.63
2022-12-13T05:28:44.398Z,-10.59
2022-12-13T05:31:22.983Z,-10.64
2022-12-13T05:33:54.988Z,-10.64
2022-12-13T05:36:29.244Z,-10.65
2022-12-13T05:38:56.147Z,-10.64
2022-12-13T05:41:27.986Z,-10.61
2022-12-13T05:43:55.088Z,-10.70
2022-12-13T05:46:21.740Z,-10.69
2022-12-13T05:48:48.546Z,-10.68
2022-12-13T05:51:17.601Z,-10.70
2022-12-13T05:53:47.303Z,-10.80
2022-12-13T05:56:22.885Z,-10.78
2022-12-13T05:58:53.355Z,-10.78
2022-12-13T06:01:23.703Z,-10.78
2022-12-13T06:03:50.536Z,-10.82
2022-12-13T06:06:21.214Z,-10.80
2022-12-13T06:08:51.038Z,-10.86
2022-12-13T06:11:31.261Z,-10.82
2022-12-13T06:14:00.921Z,-10.82
2022-12-13T06:16:28.253Z,-10.80
2022-12-13T06:21:40.683Z,-10.85
2022-12-13T06:24:10.704Z,-10.86
2022-12-13T06:40:01.006Z,-10.89
2022-12-13T06:42:31.829Z,-10.89
2022-12-13T06:44:58.448Z,-10.89
2022-12-13T06:47:30.968Z,-10.92
2022-12-13T06:49:59.136Z,-10.93
2022-12-13T06:52:32.585Z,-10.91
2022-12-13T06:55:00.057Z,-10.90
2022-12-13T06:57:26.758Z,-10.90
2022-12-13T06:59:53.434Z,-10.93
2022-12-13T07:02:24.631Z,-10.93
2022-12-13T07:04:52.091Z,-10.91
2022-12-13T07:07:18.719Z,-10.99
2022-12-13T07:09:45.396Z,-11.09
2022-12-13T07:12:14.447Z,-11.14
2022-12-13T07:14:41.453Z,-11.22
2022-12-13T07:25:28.692Z,-11.18
2022-12-13T07:28:07.793Z,-11.11
2022-12-13T07:30:40.594Z,-11.04
2022-12-13T07:33:09.390Z,-11.04
2022-12-13T07:35:36.907Z,-11.08
2022-12-13T07:38:04.650Z,-11.06
2022-12-13T07:40:33.756Z,-11.09
2022-12-13T07:43:00.465Z,-11.03
2022-12-13T07:45:27.334Z,-10.99
2022-12-13T07:47:53.986Z,-10.92
2022-12-13T07:53:08.761Z,-10.87
2022-12-13T07:55:36.726Z,-10.85
2022-12-13T07:58:09.391Z,-11.00
2022-12-13T08:00:37.559Z,-10.98
2022-12-13T08:03:05.768Z,-10.93
2022-12-13T08:05:38.337Z,-10.88
2022-12-13T08:08:07.456Z,-10.84
2022-12-13T08:10:34.154Z,-10.78
2022-12-13T08:13:03.921Z,-10.74
2022-12-13T08:15:30.653Z,-10.72
2022-12-13T08:17:58.234Z,-10.70
2022-12-13T08:20:24.904Z,-10.58
2022-12-13T08:23:01.651Z,-10.56
2022-12-13T08:25:30.274Z,-10.59
2022-12-13T08:28:01.698Z,-10.57
2022-12-13T08:30:30.530Z,-10.47
2022-12-13T08:32:57.688Z,-10.41
2022-12-13T08:35:32.077Z,-10.42
2022-12-13T08:38:01.003Z,-10.41
2022-12-13T08:40:27.752Z,-10.36
2022-12-13T08:42:55.578Z,-10.25
2022-12-13T08:45:24.043Z,-10.19
2022-12-13T08:47:50.634Z,-10.18
2022-12-13T08:50:17.353Z,-10.30
2022-12-13T08:52:45.022Z,-10.22
2022-12-13T08:55:13.300Z,-10.16
2022-12-13T08:57:41.325Z,-10.12
2022-12-13T09:00:11.598Z,-10.06
2022-12-13T09:02:38.960Z,-9.96
2022-12-13T09:05:07.804Z,-9.94
2022-12-13T09:07:40.990Z,-9.89
2022-12-13T09:10:26.897Z,-9.85
2022-12-13T09:13:01.282Z,-9.73
2022-12-13T09:15:34.452Z,-9.68
2022-12-13T09:18:04.147Z,-9.64
2022-12-13T09:20:32.343Z,-9.56
2022-12-13T09:23:13.686Z,-9.52
2022-12-13T09:26:05.839Z,-9.56
2022-12-13T09:28:34.967Z,-9.48
2022-12-13T09:31:01.831Z,-9.41
2022-12-13T09:33:30.621Z,-9.32
2022-12-13T09:35:57.865Z,-9.25
2022-12-13T09:38:24.453Z,-9.22
2022-12-13T09:40:58.884Z,-9.19
2022-12-13T09:43:32.450Z,-9.10
2022-12-13T09:46:13.364Z,-9.14
2022-12-13T09:49:01.093Z,-9.01
2022-12-13T09:51:43.831Z,-8.94
2022-12-13T09:54:20.651Z,-8.86
2022-12-13T09:56:51.101Z,-8.79
2022-12-13T09:59:28.910Z,-8.73
2022-12-13T10:01:57.471Z,-8.69
2022-12-13T10:04:24.164Z,-8.68
2022-12-13T10:06:54.704Z,-8.62
2022-12-13T10:09:21.690Z,-8.54
2022-12-13T10:11:51.223Z,-8.46
2022-12-13T10:14:37.332Z,-8.40
2022-12-13T10:17:08.473Z,-8.38
2022-12-13T10:19:41.647Z,-8.31
2022-12-13T10:22:13.449Z,-8.31
2022-12-13T10:24:56.558Z,-8.20
2022-12-13T10:27:34.773Z,-8.13
2022-12-13T10:30:12.529Z,-8.05
2022-12-13T10:32:53.927Z,-7.97
2022-12-13T10:35:20.804Z,-7.88
2022-12-13T10:37:47.558Z,-7.81
2022-12-13T10:40:33.908Z,-7.71
2022-12-13T10:43:21.157Z,-7.50
2022-12-13T10:45:54.201Z,-7.44
2022-12-13T10:48:27.065Z,-7.37
2022-12-13T10:51:02.931Z,-7.31
2022-12-13T10:53:34.223Z,-7.24
2022-12-13T10:56:02.648Z,-7.18
2022-12-13T10:58:41.644Z,-7.11
2022-12-13T11:01:11.973Z,-6.99
2022-12-13T11:03:38.866Z,-6.94
2022-12-13T11:06:15.432Z,-6.88
2022-12-13T11:08:42.109Z,-6.84
2022-12-13T11:11:10.049Z,-6.78
2022-12-13T11:13:47.163Z,-6.69
2022-12-13T11:16:34.125Z,-6.58
2022-12-13T11:19:05.945Z,-6.52
2022-12-13T11:21:36.769Z,-6.45
2022-12-13T11:24:08.542Z,-6.35
2022-12-13T11:26:38.417Z,-6.26
2022-12-13T11:29:42.930Z,-6.17
2022-12-13T11:32:22.547Z,-6.11
2022-12-13T11:34:58.826Z,-6.04
2022-12-13T11:37:31.356Z,-5.95
2022-12-13T11:40:05.261Z,-5.89
2022-12-13T11:42:55.899Z,-5.84
2022-12-13T11:45:29.744Z,-5.74
2022-12-13T11:48:18.000Z,-5.69
2022-12-13T11:50:48.541Z,-5.63
2022-12-13T11:53:41.678Z,-5.51
2022-12-13T11:56:23.914Z,-5.38
2022-12-13T11:59:19.083Z,-5.26
2022-12-13T12:02:16.733Z,-5.15
2022-12-13T12:05:00.449Z,-5.09
2022-12-13T12:11:44.760Z,-4.88
2022-12-13T12:14:36.271Z,-4.80
2022-12-13T12:17:04.175Z,-4.73
2022-12-13T12:19:44.020Z,-4.67
2022-12-13T12:22:28.736Z,-4.56
2022-12-13T12:25:10.656Z,-4.45
2022-12-13T12:28:02.050Z,-4.37
2022-12-13T12:30:38.055Z,-4.27
2022-12-13T12:33:33.767Z,-4.12
2022-12-13T12:36:06.317Z,-4.06
2022-12-13T12:38:54.155Z,-3.91
2022-12-13T12:41:20.705Z,-3.81
2022-12-13T12:44:09.647Z,-3.73
2022-12-13T12:47:01.472Z,-3.63
2022-12-13T12:49:47.552Z,-3.43
2022-12-13T12:52:15.009Z,-3.35
2022-12-13T12:55:18.818Z,-3.16
2022-12-13T12:57:57.455Z,-3.00
2022-12-13T13:00:36.055Z,-2.77
2022-12-13T13:03:24.273Z,-2.54
2022-12-13T13:06:03.067Z,-2.32
2022-12-13T13:08:37.603Z,-2.14
2022-12-13T13:11:06.407Z,-1.93
2022-12-13T13:14:01.771Z,-1.80
2022-12-13T13:16:39.561Z,-1.64
2022-12-13T13:19:11.889Z,-1.38
2022-12-13T13:21:47.364Z,-1.19
2022-12-13T13:24:19.915Z,-1.05
2022-12-13T13:26:52.447Z,-0.94
2022-12-13T13:29:26.572Z,-0.81
2022-12-13T13:32:01.149Z,-0.60
2022-12-13T13:34:43.389Z,-0.48
2022-12-13T13:37:23.072Z,-0.24
2022-12-13T13:39:52.723Z,0.00
2022-12-13T13:42:29.509Z,0.00
2022-12-13T13:45:22.883Z,0.10
2022-12-13T13:47:59.601Z,0.20
2022-12-13T13:51:01.062Z,0.16
2022-12-13T13:53:33.532Z,0.15
2022-12-13T13:56:10.280Z,0.17
2022-12-13T13:58:42.822Z,0.14
2022-12-13T14:01:12.515Z,0.03
2022-12-13T14:04:04.027Z,-0.09
2022-12-13T14:07:01.306Z,-0.14
2022-12-13T14:10:03.921Z,-0.31
2022-12-13T14:13:20.888Z,-0.46
2022-12-13T14:15:53.272Z,-0.48
2022-12-13T14:18:58.217Z,-0.56
2022-12-13T14:21:40.120Z,-0.82
2022-12-13T14:24:16.550Z,-1.02
2022-12-13T14:27:13.492Z,-0.97
2022-12-13T14:29:48.225Z,-1.20
2022-12-13T14:32:28.562Z,-1.21
2022-12-13T14:34:59.564Z,-1.27
2022-12-13T14:38:05.061Z,-1.35
2022-12-13T14:40:48.160Z,-1.43
2022-12-13T14:43:32.057Z,-1.54
2022-12-13T14:46:01.107Z,-1.62
2022-12-13T14:48:37.771Z,-1.75
2022-12-13T14:51:04.821Z,-1.83
2022-12-13T14:53:37.824Z,-1.99
2022-12-13T14:56:04.528Z,-2.09
2022-12-13T14:58:31.335Z,-2.37
2022-12-13T15:00:58.069Z,-2.49
2022-12-13T15:03:27.578Z,-2.71
2022-12-13T15:06:00.288Z,-2.65
2022-12-13T15:08:27.861Z,-2.67
2022-12-13T15:10:57.827Z,-2.88
2022-12-13T15:13:36.251Z,-3.05
2022-12-13T15:16:28.311Z,-3.07
2022-12-13T15:19:30.855Z,-3.16
2022-12-13T15:22:05.428Z,-3.26
2022-12-13T15:24:34.703Z,-3.33
2022-12-13T15:27:02.678Z,-3.45
2022-12-13T15:29:35.579Z,-3.51
2022-12-13T15:32:03.585Z,-3.60
2022-12-13T15:34:31.106Z,-3.68
2022-12-13T15:37:28.495Z,-3.86
2022-12-13T15:40:01.394Z,-3.89
2022-12-13T15:42:35.776Z,-3.97
2022-12-13T15:45:33.345Z,-4.06
2022-12-13T15:48:04.601Z,-4.16
2022-12-13T15:50:38.508Z,-4.22
2022-12-13T15:53:19.983Z,-4.32
2022-12-13T15:55:46.848Z,-4.34
2022-12-13T15:58:25.668Z,-4.42
2022-12-13T16:00:52.676Z,-4.48
2022-12-13T16:03:24.652Z,-4.56
2022-12-13T16:05:55.152Z,-4.61
2022-12-13T16:08:35.648Z,-4.67
2022-12-13T16:11:02.676Z,-4.72
2022-12-13T16:13:36.196Z,-4.80
2022-12-13T16:16:27.975Z,-4.85
2022-12-13T16:19:00.228Z,-4.88
2022-12-13T16:21:28.298Z,-4.91
2022-12-13T16:23:54.956Z,-5.01
2022-12-13T16:26:29.611Z,-5.08
2022-12-13T16:28:59.445Z,-5.11
2022-12-13T16:31:35.805Z,-5.13
2022-12-13T16:34:04.015Z,-5.20
2022-12-13T16:36:30.827Z,-5.27
2022-12-13T16:38:57.703Z,-5.33
2022-12-13T16:41:25.064Z,-5.44
2022-12-13T16:43:56.563Z,-5.51
2022-12-13T16:47:16.974Z,-5.61
2022-12-13T16:49:26.222Z,-5.71
2022-12-13T16:51:53.790Z,-5.75
2022-12-13T16:54:21.931Z,-5.79
2022-12-13T16:56:49.457Z,-5.86
2022-12-13T16:59:18.633Z,-5.85
2022-12-13T17:01:46.132Z,-5.90
2022-12-13T17:04:19.672Z,-5.99
2022-12-13T17:06:48.482Z,-6.06
2022-12-13T17:09:15.108Z,-6.07
2022-12-13T17:11:41.762Z,-6.13
2022-12-13T17:14:08.529Z,-6.16
2022-12-13T17:16:35.273Z,-6.19
2022-12-13T17:19:02.244Z,-6.28
2022-12-13T17:21:29.907Z,-6.30
2022-12-13T17:24:01.700Z,-6.28
2022-12-13T17:26:29.211Z,-6.31
2022-12-13T17:28:56.212Z,-6.34
2022-12-13T17:31:22.952Z,-6.39
2022-12-13T17:33:49.658Z,-6.44
2022-12-13T17:36:16.591Z,-6.42
2022-12-13T17:38:48.026Z,-6.43
2022-12-13T17:41:18.295Z,-6.54
2022-12-13T17:43:45.155Z,-6.60
2022-12-13T17:46:14.719Z,-6.66
2022-12-13T17:48:41.970Z,-6.71
2022-12-13T17:51:11.090Z,-6.72
2022-12-13T17:53:40.399Z,-6.73
2022-12-13T17:56:08.529Z,-6.80
2022-12-13T17:58:35.636Z,-6.80
2022-12-13T18:01:24.147Z,-6.85
2022-12-13T18:03:55.721Z,-6.87
2022-12-13T18:06:24.362Z,-6.93
2022-12-13T18:08:50.994Z,-6.94
2022-12-13T18:11:35.334Z,-6.95
2022-12-13T18:14:03.833Z,-7.02
2022-12-13T18:16:37.080Z,-6.99
2022-12-13T18:19:07.784Z,-6.96
2022-12-13T18:21:35.640Z,-6.95
2022-12-13T18:24:02.789Z,-6.98
2022-12-13T18:26:29.602Z,-7.02
2022-12-13T18:28:56.289Z,-7.01
2022-12-13T18:31:24.847Z,-7.00
2022-12-13T18:33:53.536Z,-7.01
2022-12-13T18:36:22.905Z,-7.02
2022-12-13T18:38:50.241Z,-7.03
2022-12-13T18:41:20.256Z,-7.01
2022-12-13T18:43:47.692Z,-7.04
2022-12-13T18:46:15.971Z,-7.06
2022-12-13T18:48:42.832Z,-7.12
2022-12-13T18:51:10.547Z,-7.16
2022-12-13T18:53:38.517Z,-7.24
2022-12-13T18:56:17.907Z,-7.38
2022-12-13T18:58:46.488Z,-7.40
2022-12-13T19:01:14.279Z,-7.39
2022-12-13T19:03:43.826Z,-7.34
2022-12-13T19:06:24.143Z,-7.32
2022-12-13T19:08:53.167Z,-7.35
2022-12-13T19:11:20.485Z,-7.34
2022-12-13T19:13:47.547Z,-7.30
2022-12-13T19:16:16.557Z,-7.29
2022-12-13T19:18:43.656Z,-7.28
2022-12-13T19:21:14.918Z,-7.27
2022-12-13T19:23:42.502Z,-7.26
2022-12-13T19:26:14.114Z,-7.31
2022-12-13T19:28:42.595Z,-7.31
2022-12-13T19:31:11.652Z,-7.36
2022-12-13T19:33:40.961Z,-7.43
2022-12-13T19:36:13.072Z,-7.53
2022-12-13T19:38:40.808Z,-7.53
2022-12-13T19:41:14.417Z,-7.49
2022-12-13T19:43:41.911Z,-7.48
2022-12-13T19:46:10.092Z,-7.45
2022-12-13T19:48:40.079Z,-7.43
2022-12-13T19:51:08.960Z,-7.43
2022-12-13T19:53:37.652Z,-7.48
2022-12-13T19:56:12.274Z,-7.42
2022-12-13T19:58:40.091Z,-7.46
2022-12-13T20:01:08.181Z,-7.41
2022-12-13T20:03:40.213Z,-7.38
2022-12-13T20:06:09.082Z,-7.42
2022-12-13T20:08:36.003Z,-7.40
2022-12-13T20:11:11.441Z,-7.41
2022-12-13T20:13:38.014Z,-7.44
2022-12-13T20:16:05.497Z,-7.41
2022-12-13T20:18:33.417Z,-7.39
2022-12-13T20:21:13.777Z,-7.50
2022-12-13T20:23:49.454Z,-7.54
2022-12-13T20:26:21.656Z,-7.55
2022-12-13T20:28:49.815Z,-7.56
2022-12-13T20:31:22.542Z,-7.57
2022-12-13T20:33:53.316Z,-7.55
2022-12-13T20:36:25.304Z,-7.54
2022-12-13T20:38:55.246Z,-7.50
2022-12-13T20:41:22.179Z,-7.48
2022-12-13T20:43:51.844Z,-7.52
2022-12-13T20:46:18.732Z,-7.54
2022-12-13T20:48:46.740Z,-7.53
2022-12-13T20:51:15.909Z,-7.54
2022-12-13T20:53:43.220Z,-7.55
2022-12-13T20:56:12.772Z,-7.60
2022-12-13T20:58:40.472Z,-7.56
2022-12-13T21:01:08.195Z,-7.55
2022-12-13T21:03:35.112Z,-7.54
2022-12-13T21:06:01.727Z,-7.52
2022-12-13T21:08:46.893Z,-7.53
2022-12-13T21:11:26.036Z,-7.58
2022-12-13T21:14:09.181Z,-7.53
2022-12-13T21:16:44.240Z,-7.51
2022-12-13T21:19:14.368Z,-7.49
2022-12-13T21:21:40.985Z,-7.44
2022-12-13T21:24:08.339Z,-7.44
2022-12-13T21:26:36.415Z,-7.43
2022-12-13T21:29:06.817Z,-7.44
2022-12-13T21:31:35.414Z,-7.42
2022-12-13T21:34:02.752Z,-7.41
2022-12-13T21:36:32.108Z,-7.43
2022-12-13T21:39:01.484Z,-7.43
2022-12-13T21:41:28.934Z,-7.49
2022-12-13T21:43:56.089Z,-7.48
2022-12-13T21:46:31.299Z,-7.45
2022-12-13T21:49:12.140Z,-7.44
2022-12-13T21:51:44.611Z,-7.44
2022-12-13T21:54:14.383Z,-7.45
2022-12-13T21:57:01.748Z,-7.46
2022-12-13T21:59:28.960Z,-7.46
2022-12-13T22:02:16.853Z,-7.46
2022-12-13T22:04:51.227Z,-7.46
2022-12-13T22:07:19.085Z,-7.48
2022-12-13T22:09:46.603Z,-7.49
2022-12-13T22:12:40.847Z,-7.45
2022-12-13T22:15:10.453Z,-7.52
2022-12-13T22:17:37.867Z,-7.46
2022-12-13T22:20:22.460Z,-7.52
2022-12-13T22:22:49.107Z,-7.48
2022-12-13T22:25:15.829Z,-7.48
2022-12-13T22:27:42.485Z,-7.44
2022-12-13T22:30:10.504Z,-7.43
2022-12-13T22:32:37.219Z,-7.50
2022-12-13T22:35:04.864Z,-7.42
2022-12-13T22:37:32.235Z,-7.47
2022-12-13T22:39:58.911Z,-7.40
2022-12-13T22:42:25.652Z,-7.38
2022-12-13T22:44:52.327Z,-7.38
2022-12-13T22:47:18.983Z,-7.36
2022-12-13T22:49:49.055Z,-7.28
2022-12-13T22:52:16.094Z,-7.25
2022-12-13T22:54:42.752Z,-7.24
2022-12-13T22:57:09.454Z,-7.18
2022-12-13T22:59:36.131Z,-7.18
2022-12-13T23:02:04.031Z,-7.21
2022-12-13T23:04:31.978Z,-7.15
2022-12-13T23:06:58.912Z,-7.24
2022-12-13T23:09:25.573Z,-7.25
2022-12-13T23:12:10.700Z,-7.30
2022-12-13T23:14:37.335Z,-7.35
2022-12-13T23:17:04.441Z,-7.28
2022-12-13T23:19:49.724Z,-7.25
2022-12-13T23:22:18.160Z,-7.20
2022-12-13T23:24:44.825Z,-7.25
2022-12-13T23:27:11.533Z,-7.17
2022-12-13T23:29:38.406Z,-7.19
2022-12-13T23:32:05.130Z,-7.19
2022-12-13T23:34:31.877Z,-7.13
2022-12-13T23:36:58.510Z,-7.06
2022-12-13T23:39:25.335Z,-7.14
2022-12-13T23:41:52.103Z,-7.14
2022-12-13T23:44:18.797Z,-7.16
2022-12-13T23:46:48.539Z,-7.08
2022-12-13T23:49:16.521Z,-7.11
2022-12-13T23:51:43.551Z,-7.02
2022-12-13T23:54:16.392Z,-7.02
2022-12-13T23:56:43.654Z,-7.14
2022-12-13T23:59:10.513Z,-7.12
